createdAt,value
2018-05-01T00:02:18.980Z,99283.98
2018-05-01T00:04:47.347Z,99279.23
2018-05-01T00:07:15.669Z,99276.71
2018-05-01T00:09:43.991Z,99283.19
2018-05-01T00:12:12.329Z,99284.70
2018-05-01T00:14:40.637Z,99276.55
2018-05-01T00:17:09.044Z,99276.80
2018-05-01T00:19:37.362Z,99273.63
2018-05-01T00:22:05.730Z,99272.12
2018-05-01T00:24:34.053Z,99277.36
2018-05-01T00:27:02.391Z,99277.59
2018-05-01T00:29:30.713Z,99279.41
2018-05-01T00:31:59.086Z,99286.75
2018-05-01T00:34:27.410Z,99292.48
2018-05-01T00:36:55.968Z,99297.47
2018-05-01T00:39:24.282Z,99306.02
2018-05-01T00:41:52.880Z,99304.59
2018-05-01T00:44:21.206Z,99292.22
2018-05-01T00:46:49.536Z,99296.09
2018-05-01T00:49:17.894Z,99276.55
2018-05-01T00:51:46.223Z,99303.12
2018-05-01T00:54:14.541Z,99291.79
2018-05-01T00:56:42.894Z,99287.36
2018-05-01T00:59:11.241Z,99293.81
2018-05-01T01:01:39.575Z,99283.05
2018-05-01T01:04:07.917Z,99290.95
2018-05-01T01:06:36.239Z,99286.37
2018-05-01T01:09:04.571Z,99292.13
2018-05-01T01:11:33.045Z,99292.44
2018-05-01T01:14:01.391Z,99289.67
2018-05-01T01:16:29.707Z,99291.11
2018-05-01T01:18:58.032Z,99301.53
2018-05-01T01:21:26.388Z,99312.62
2018-05-01T01:23:54.722Z,99303.46
2018-05-01T01:26:23.043Z,99317.13
2018-05-01T01:28:51.407Z,99317.95
2018-05-01T01:31:19.759Z,99332.81
2018-05-01T01:33:48.147Z,99337.16
2018-05-01T01:36:16.033Z,99339.95
2018-05-01T01:38:44.155Z,99349.20
2018-05-01T01:41:11.945Z,99354.80
2018-05-01T01:43:39.774Z,99361.23
2018-05-01T01:46:07.644Z,99358.88
2018-05-01T01:48:35.465Z,99359.89
2018-05-01T01:51:03.235Z,99353.36
2018-05-01T01:53:31.089Z,99355.88
2018-05-01T01:55:58.900Z,99345.84
2018-05-01T01:58:26.739Z,99358.23
2018-05-01T02:00:54.520Z,99357.84
2018-05-01T02:03:22.313Z,99352.16
2018-05-01T02:05:50.109Z,99349.45
2018-05-01T02:08:17.944Z,99349.40
2018-05-01T02:10:45.748Z,99346.77
2018-05-01T02:13:13.527Z,99338.14
2018-05-01T02:15:41.367Z,99350.14
2018-05-01T02:18:09.161Z,99345.17
2018-05-01T02:20:36.957Z,99345.41
2018-05-01T02:23:04.818Z,99341.88
2018-05-01T02:25:32.684Z,99333.53
2018-05-01T02:28:00.480Z,99320.89
2018-05-01T02:30:28.264Z,99317.23
2018-05-01T02:32:56.116Z,99319.92
2018-05-01T02:35:23.904Z,99317.46
2018-05-01T02:37:51.711Z,99316.34
2018-05-01T02:40:19.501Z,99327.74
2018-05-01T02:42:47.328Z,99352.64
2018-05-01T02:45:15.292Z,99364.19
2018-05-01T02:47:43.088Z,99361.77
2018-05-01T02:50:10.883Z,99338.75
2018-05-01T02:52:38.734Z,99348.34
2018-05-01T02:55:06.513Z,99360.86
2018-05-01T02:57:34.290Z,99343.31
2018-05-01T03:00:02.089Z,99337.18
2018-05-01T03:02:29.959Z,99346.34
2018-05-01T03:05:00.596Z,99373.73
2018-05-01T03:07:28.375Z,99351.56
2018-05-01T03:09:56.256Z,99350.44
2018-05-01T03:12:24.027Z,99353.09
2018-05-01T03:14:51.802Z,99350.84
2018-05-01T03:17:19.644Z,99350.11
2018-05-01T03:19:47.462Z,99348.55
2018-05-01T03:22:15.221Z,99331.51
2018-05-01T03:24:42.998Z,99314.45
2018-05-01T03:27:10.833Z,99344.45
2018-05-01T03:29:38.688Z,99356.53
2018-05-01T03:32:06.563Z,99367.50
2018-05-01T03:34:34.397Z,99364.56
2018-05-01T03:37:02.220Z,99371.63
2018-05-01T03:39:29.989Z,99360.08
2018-05-01T03:41:57.798Z,99354.67
2018-05-01T03:44:25.580Z,99365.61
2018-05-01T03:46:53.356Z,99351.84
2018-05-01T03:49:21.202Z,99358.98
2018-05-01T03:51:48.985Z,99364.72
2018-05-01T03:54:16.770Z,99362.20
2018-05-01T03:56:44.566Z,99372.55
2018-05-01T03:59:12.412Z,99375.53
2018-05-01T04:01:40.295Z,99382.11
2018-05-01T04:04:08.073Z,99375.80
2018-05-01T04:06:35.871Z,99371.73
2018-05-01T04:09:03.659Z,99364.56
2018-05-01T04:11:31.591Z,99370.13
2018-05-01T04:13:59.413Z,99372.55
2018-05-01T04:16:27.178Z,99374.91
2018-05-01T04:18:54.989Z,99368.03
2018-05-01T04:21:22.784Z,99368.75
2018-05-01T04:23:50.598Z,99370.03
2018-05-01T04:26:18.379Z,99379.00
2018-05-01T04:28:46.157Z,99387.84
2018-05-01T04:31:13.938Z,99395.31
2018-05-01T04:33:41.795Z,99396.00
2018-05-01T04:36:09.562Z,99391.80
2018-05-01T04:38:37.359Z,99388.04
2018-05-01T04:41:05.259Z,99388.34
2018-05-01T04:43:33.123Z,99391.16
2018-05-01T04:46:00.989Z,99391.97
2018-05-01T04:48:28.769Z,99398.58
2018-05-01T04:50:56.693Z,99387.94
2018-05-01T04:53:25.406Z,99388.76
2018-05-01T04:55:53.266Z,99390.59
2018-05-01T04:58:21.042Z,99386.00
2018-05-01T05:00:49.032Z,99384.30
2018-05-01T05:03:16.828Z,99390.72
2018-05-01T05:05:44.659Z,99393.43
2018-05-01T05:08:12.433Z,99396.84
2018-05-01T05:10:40.347Z,99395.89
2018-05-01T05:13:08.159Z,99394.81
2018-05-01T05:15:35.938Z,99393.06
2018-05-01T05:18:03.739Z,99390.73
2018-05-01T05:20:31.670Z,99394.42
2018-05-01T05:22:59.542Z,99390.42
2018-05-01T05:25:27.326Z,99395.44
2018-05-01T05:27:55.128Z,99392.06
2018-05-01T05:30:22.919Z,99395.64
2018-05-01T05:32:50.721Z,99405.13
2018-05-01T05:35:18.682Z,99417.55
2018-05-01T05:37:46.444Z,99407.58
2018-05-01T05:40:14.398Z,99412.73
2018-05-01T05:42:42.246Z,99411.25
2018-05-01T05:45:10.041Z,99418.52
2018-05-01T05:47:37.800Z,99422.89
2018-05-01T05:50:05.670Z,99427.78
2018-05-01T05:52:33.487Z,99434.36
2018-05-01T05:55:01.262Z,99440.75
2018-05-01T05:57:29.043Z,99441.88
2018-05-01T05:59:56.880Z,99438.70
2018-05-01T06:02:24.660Z,99444.59
2018-05-01T06:04:52.440Z,99443.33
2018-05-01T06:07:20.254Z,99437.15
2018-05-01T06:09:48.059Z,99444.42
2018-05-01T06:12:15.861Z,99459.08
2018-05-01T06:14:43.749Z,99455.59
2018-05-01T06:17:11.552Z,99469.31
2018-05-01T06:19:39.345Z,99463.51
2018-05-01T06:22:07.505Z,99466.58
2018-05-01T06:24:36.204Z,99468.98
2018-05-01T06:27:04.163Z,99467.91
2018-05-01T06:29:31.936Z,99468.52
2018-05-01T06:31:59.750Z,99476.63
2018-05-01T06:34:27.513Z,99477.84
2018-05-01T06:36:55.344Z,99474.41
2018-05-01T06:39:23.046Z,99465.82
2018-05-01T06:41:50.860Z,99460.02
2018-05-01T06:44:18.911Z,99457.34
2018-05-01T06:46:46.930Z,99451.96
2018-05-01T06:49:14.766Z,99449.98
2018-05-01T06:51:42.565Z,99459.96
2018-05-01T06:54:10.334Z,99460.41
2018-05-01T06:56:38.107Z,99467.64
2018-05-01T06:59:05.912Z,99472.58
2018-05-01T07:01:33.685Z,99470.52
2018-05-01T07:04:02.184Z,99467.83
2018-05-01T07:06:29.980Z,99473.80
2018-05-01T07:08:57.773Z,99483.27
2018-05-01T07:11:25.747Z,99490.45
2018-05-01T07:13:53.516Z,99495.95
2018-05-01T07:16:21.349Z,99491.72
2018-05-01T07:18:49.151Z,99491.45
2018-05-01T07:21:17.047Z,99492.95
2018-05-01T07:23:44.836Z,99492.48
2018-05-01T07:26:12.619Z,99493.47
2018-05-01T07:28:40.407Z,99499.83
2018-05-01T07:31:08.194Z,99494.41
2018-05-01T07:33:35.985Z,99498.75
2018-05-01T07:36:03.803Z,99499.41
2018-05-01T07:38:31.614Z,99505.19
2018-05-01T07:41:00.091Z,99510.47
2018-05-01T07:43:27.904Z,99503.11
2018-05-01T07:45:55.693Z,99507.34
2018-05-01T07:48:23.476Z,99504.52
2018-05-01T07:50:51.352Z,99508.71
2018-05-01T07:53:19.145Z,99506.37
2018-05-01T07:55:47.051Z,99508.80
2018-05-01T07:58:14.806Z,99515.39
2018-05-01T08:00:42.675Z,99519.67
2018-05-01T08:03:10.774Z,99526.51
2018-05-01T08:05:38.545Z,99519.81
2018-05-01T08:08:06.330Z,99525.77
2018-05-01T08:10:34.178Z,99529.65
2018-05-01T08:13:01.975Z,99531.00
2018-05-01T08:15:29.750Z,99526.38
2018-05-01T08:17:57.595Z,99532.09
2018-05-01T08:20:25.330Z,99536.17
2018-05-01T08:22:53.109Z,99549.31
2018-05-01T08:25:20.905Z,99550.50
2018-05-01T08:27:48.681Z,99551.14
2018-05-01T08:30:16.468Z,99559.09
2018-05-01T08:32:44.245Z,99563.37
2018-05-01T08:35:12.073Z,99560.02
2018-05-01T08:37:39.850Z,99562.80
2018-05-01T08:40:07.634Z,99565.00
2018-05-01T08:42:35.446Z,99574.72
2018-05-01T08:45:03.281Z,99571.81
2018-05-01T08:47:31.082Z,99577.23
2018-05-01T08:49:58.923Z,99571.94
2018-05-01T08:52:26.823Z,99578.41
2018-05-01T08:54:54.618Z,99575.28
2018-05-01T08:57:22.437Z,99577.91
2018-05-01T08:59:50.186Z,99585.09
2018-05-01T09:02:17.971Z,99579.80
2018-05-01T09:04:45.747Z,99577.95
2018-05-01T09:07:13.534Z,99580.59
2018-05-01T09:09:41.360Z,99583.13
2018-05-01T09:12:09.238Z,99588.09
2018-05-01T09:14:37.012Z,99586.30
2018-05-01T09:17:04.911Z,99585.98
2018-05-01T09:19:32.675Z,99584.95
2018-05-01T09:22:00.492Z,99581.44
2018-05-01T09:24:28.307Z,99582.16
2018-05-01T09:26:56.093Z,99580.64
2018-05-01T09:29:23.980Z,99583.93
2018-05-01T09:31:51.800Z,99589.13
2018-05-01T09:34:19.579Z,99594.55
2018-05-01T09:36:47.355Z,99596.92
2018-05-01T09:39:15.150Z,99600.52
2018-05-01T09:41:42.962Z,99593.95
2018-05-01T09:44:10.780Z,99587.96
2018-05-01T09:46:38.542Z,99585.12
2018-05-01T09:49:06.357Z,99587.20
2018-05-01T09:51:34.132Z,99587.13
2018-05-01T09:54:02.442Z,99595.52
2018-05-01T09:56:30.743Z,99599.92
2018-05-01T09:58:59.076Z,99593.19
2018-05-01T10:01:27.393Z,99596.17
2018-05-01T10:03:55.730Z,99602.88
2018-05-01T10:06:24.042Z,99598.17
2018-05-01T10:08:52.354Z,99609.44
2018-05-01T10:11:20.662Z,99614.38
2018-05-01T10:13:48.998Z,99609.22
2018-05-01T10:16:17.308Z,99604.37
2018-05-01T10:18:45.630Z,99603.58
2018-05-01T10:21:13.996Z,99592.45
2018-05-01T10:23:42.371Z,99594.40
2018-05-01T10:26:10.668Z,99585.85
2018-05-01T10:28:39.121Z,99579.65
2018-05-01T10:31:07.405Z,99569.17
2018-05-01T10:33:35.861Z,99559.97
2018-05-01T10:36:04.104Z,99571.42
2018-05-01T10:38:32.545Z,99560.31
2018-05-01T10:41:00.774Z,99558.09
2018-05-01T10:43:29.096Z,99558.94
2018-05-01T10:45:57.448Z,99557.58
2018-05-01T10:48:25.774Z,99573.14
2018-05-01T10:50:54.321Z,99576.53
2018-05-01T10:53:22.678Z,99564.48
2018-05-01T10:55:51.000Z,99571.80
2018-05-01T10:58:19.391Z,99577.11
2018-05-01T11:00:47.770Z,99580.23
2018-05-01T11:03:16.071Z,99589.33
2018-05-01T11:05:44.391Z,99592.38
2018-05-01T11:08:12.704Z,99606.36
2018-05-01T11:10:41.213Z,99610.69
2018-05-01T11:13:09.547Z,99603.41
2018-05-01T11:15:38.122Z,99635.47
2018-05-01T11:18:06.458Z,99615.88
2018-05-01T11:20:35.624Z,99612.17
2018-05-01T11:23:03.954Z,99612.60
2018-05-01T11:25:32.352Z,99620.17
2018-05-01T11:28:00.681Z,99624.20
2018-05-01T11:30:29.008Z,99619.50
2018-05-01T11:32:57.351Z,99625.41
2018-05-01T11:35:25.671Z,99629.39
2018-05-01T11:37:53.982Z,99626.64
2018-05-01T11:40:22.291Z,99628.37
2018-05-01T11:42:50.621Z,99629.92
2018-05-01T11:45:18.932Z,99630.58
2018-05-01T11:47:47.254Z,99633.52
2018-05-01T11:50:15.582Z,99638.09
2018-05-01T11:52:44.202Z,99634.52
2018-05-01T11:55:12.526Z,99648.77
2018-05-01T11:57:40.865Z,99635.69
2018-05-01T12:00:09.258Z,99631.08
2018-05-01T12:02:37.626Z,99634.69
2018-05-01T12:05:05.867Z,99632.39
2018-05-01T12:07:34.199Z,99621.16
2018-05-01T12:10:02.521Z,99635.02
2018-05-01T12:12:30.846Z,99634.64
2018-05-01T12:14:59.181Z,99641.29
2018-05-01T12:17:27.529Z,99636.34
2018-05-01T12:19:55.854Z,99642.93
2018-05-01T12:22:24.168Z,99629.56
2018-05-01T12:24:52.908Z,99630.09
2018-05-01T12:27:21.216Z,99628.55
2018-05-01T12:29:49.660Z,99623.80
2018-05-01T12:32:17.911Z,99618.66
2018-05-01T12:34:46.289Z,99606.52
2018-05-01T12:37:14.613Z,99597.48
2018-05-01T12:39:43.004Z,99600.86
2018-05-01T12:42:11.331Z,99603.19
2018-05-01T12:44:39.718Z,99601.97
2018-05-01T12:47:08.038Z,99601.94
2018-05-01T12:49:36.377Z,99596.52
2018-05-01T12:52:04.692Z,99591.36
2018-05-01T12:54:33.036Z,99590.48
2018-05-01T12:57:01.399Z,99579.86
2018-05-01T12:59:29.706Z,99585.52
2018-05-01T13:01:58.025Z,99595.34
2018-05-01T13:04:26.343Z,99582.16
2018-05-01T13:06:54.678Z,99579.11
2018-05-01T13:09:23.052Z,99580.87
2018-05-01T13:11:51.375Z,99573.24
2018-05-01T13:14:19.706Z,99584.16
2018-05-01T13:16:48.050Z,99589.12
2018-05-01T13:19:16.357Z,99589.09
2018-05-01T13:21:44.697Z,99587.16
2018-05-01T13:24:13.024Z,99611.44
2018-05-01T13:26:41.481Z,99595.00
2018-05-01T13:29:09.796Z,99594.88
2018-05-01T13:31:38.229Z,99590.98
2018-05-01T13:34:06.532Z,99594.34
2018-05-01T13:36:34.887Z,99592.34
2018-05-01T13:39:03.227Z,99581.91
2018-05-01T13:41:31.564Z,99584.87
2018-05-01T13:43:59.860Z,99578.78
2018-05-01T13:46:28.247Z,99577.64
2018-05-01T13:48:56.659Z,99563.28
2018-05-01T13:51:24.925Z,99581.63
2018-05-01T13:53:53.258Z,99576.71
2018-05-01T13:56:21.575Z,99578.48
2018-05-01T13:58:50.128Z,99581.54
2018-05-01T14:01:18.496Z,99579.55
2018-05-01T14:03:46.812Z,99595.94
2018-05-01T14:06:15.149Z,99600.19
2018-05-01T14:08:43.491Z,99594.35
2018-05-01T14:11:11.796Z,99599.89
2018-05-01T14:13:40.257Z,99598.05
2018-05-01T14:16:08.639Z,99593.53
2018-05-01T14:18:36.981Z,99591.19
2018-05-01T14:21:05.333Z,99600.09
2018-05-01T14:23:33.644Z,99604.13
2018-05-01T14:26:02.064Z,99603.89
2018-05-01T14:28:30.400Z,99600.45
2018-05-01T14:30:58.710Z,99599.67
2018-05-01T14:33:27.098Z,99608.91
2018-05-01T14:35:55.695Z,99607.14
2018-05-01T14:38:24.006Z,99592.67
2018-05-01T14:40:52.387Z,99605.15
2018-05-01T14:43:21.062Z,99603.92
2018-05-01T14:45:49.383Z,99610.16
2018-05-01T14:48:17.688Z,99617.63
2018-05-01T14:50:46.026Z,99621.04
2018-05-01T14:53:14.417Z,99626.41
2018-05-01T14:55:43.179Z,99624.44
2018-05-01T14:58:11.711Z,99628.64
2018-05-01T15:00:40.048Z,99622.16
2018-05-01T15:03:08.356Z,99627.95
2018-05-01T15:05:36.703Z,99622.77
2018-05-01T15:08:05.092Z,99624.47
2018-05-01T15:10:33.528Z,99621.50
2018-05-01T15:13:01.891Z,99631.59
2018-05-01T15:15:30.219Z,99625.05
2018-05-01T15:17:58.581Z,99617.70
2018-05-01T15:20:26.892Z,99630.49
2018-05-01T15:22:55.207Z,99630.22
2018-05-01T15:25:23.562Z,99628.44
2018-05-01T15:27:51.863Z,99624.69
2018-05-01T15:30:20.214Z,99621.91
2018-05-01T15:32:48.521Z,99624.33
2018-05-01T15:35:16.837Z,99633.90
2018-05-01T15:37:45.148Z,99634.78
2018-05-01T15:40:13.491Z,99637.20
2018-05-01T15:42:41.815Z,99639.43
2018-05-01T15:45:10.172Z,99634.05
2018-05-01T15:47:38.500Z,99633.03
2018-05-01T15:50:06.825Z,99632.05
2018-05-01T15:52:35.134Z,99634.70
2018-05-01T15:55:03.474Z,99629.77
2018-05-01T15:57:32.038Z,99631.24
2018-05-01T16:00:00.358Z,99636.31
2018-05-01T16:02:28.791Z,99645.50
2018-05-01T16:04:57.143Z,99643.89
2018-05-01T16:07:25.458Z,99653.23
2018-05-01T16:09:53.765Z,99641.22
2018-05-01T16:12:22.121Z,99650.43
2018-05-01T16:14:50.430Z,99645.72
2018-05-01T16:17:18.734Z,99643.95
2018-05-01T16:19:47.063Z,99644.61
2018-05-01T16:22:15.392Z,99658.20
2018-05-01T16:24:43.731Z,99666.36
2018-05-01T16:27:12.079Z,99667.08
2018-05-01T16:29:40.399Z,99672.47
2018-05-01T16:32:08.720Z,99666.54
2018-05-01T16:34:37.043Z,99671.66
2018-05-01T16:37:08.717Z,99673.13
2018-05-01T16:39:37.075Z,99682.13
2018-05-01T16:42:05.408Z,99678.39
2018-05-01T16:44:33.763Z,99681.11
2018-05-01T16:47:02.107Z,99687.62
2018-05-01T16:49:30.644Z,99682.95
2018-05-01T16:51:58.950Z,99683.36
2018-05-01T16:54:27.288Z,99686.18
2018-05-01T16:56:55.655Z,99676.02
2018-05-01T16:59:23.945Z,99668.24
2018-05-01T17:01:52.258Z,99688.95
2018-05-01T17:04:20.671Z,99695.11
2018-05-01T17:06:49.134Z,99701.77
2018-05-01T17:09:17.537Z,99705.08
2018-05-01T17:11:45.860Z,99712.31
2018-05-01T17:14:14.201Z,99715.02
2018-05-01T17:16:42.545Z,99721.58
2018-05-01T17:19:15.303Z,99729.84
2018-05-01T17:21:44.828Z,99722.92
2018-05-01T17:24:13.167Z,99728.39
2018-05-01T17:26:41.574Z,99731.71
2018-05-01T17:29:09.944Z,99731.09
2018-05-01T17:31:38.224Z,99732.84
2018-05-01T17:34:06.522Z,99736.61
2018-05-01T17:36:34.842Z,99737.61
2018-05-01T17:39:03.218Z,99738.87
2018-05-01T17:41:31.557Z,99746.77
2018-05-01T17:43:59.905Z,99744.78
2018-05-01T17:46:28.286Z,99747.59
2018-05-01T17:48:56.626Z,99757.06
2018-05-01T17:51:25.104Z,99761.40
2018-05-01T17:53:53.471Z,99764.64
2018-05-01T17:56:21.777Z,99778.33
2018-05-01T17:58:50.095Z,99779.57
2018-05-01T18:01:18.427Z,99788.00
2018-05-01T18:03:46.758Z,99796.20
2018-05-01T18:06:15.147Z,99800.81
2018-05-01T18:08:43.708Z,99803.98
2018-05-01T18:11:12.032Z,99809.22
2018-05-01T18:13:40.573Z,99806.30
2018-05-01T18:16:08.871Z,99810.44
2018-05-01T18:18:37.261Z,99817.41
2018-05-01T18:21:05.546Z,99811.63
2018-05-01T18:23:33.876Z,99816.84
2018-05-01T18:26:02.199Z,99822.39
2018-05-01T18:28:30.537Z,99831.78
2018-05-01T18:30:59.191Z,99839.16
2018-05-01T18:33:27.564Z,99845.66
2018-05-01T18:35:56.564Z,99848.51
2018-05-01T18:38:24.901Z,99851.25
2018-05-01T18:40:53.679Z,99859.98
2018-05-01T18:43:22.004Z,99868.73
2018-05-01T18:45:50.310Z,99867.71
2018-05-01T18:48:18.669Z,99872.41
2018-05-01T18:50:47.037Z,99882.48
2018-05-01T18:53:15.328Z,99883.42
2018-05-01T18:55:43.697Z,99890.34
2018-05-01T18:58:12.085Z,99895.51
2018-05-01T19:00:40.517Z,99894.23
2018-05-01T19:03:08.872Z,99897.94
2018-05-01T19:05:37.194Z,99900.12
2018-05-01T19:08:05.570Z,99905.41
2018-05-01T19:10:33.992Z,99905.75
2018-05-01T19:13:02.324Z,99912.30
2018-05-01T19:15:30.763Z,99909.22
2018-05-01T19:17:59.100Z,99910.30
2018-05-01T19:20:27.427Z,99909.42
2018-05-01T19:22:55.762Z,99917.33
2018-05-01T19:25:24.113Z,99919.45
2018-05-01T19:27:52.454Z,99914.96
2018-05-01T19:30:20.807Z,99922.33
2018-05-01T19:32:49.122Z,99926.14
2018-05-01T19:35:17.439Z,99927.00
2018-05-01T19:37:45.780Z,99926.66
2018-05-01T19:40:14.096Z,99931.45
2018-05-01T19:42:42.426Z,99935.97
2018-05-01T19:45:10.750Z,99939.31
2018-05-01T19:47:39.075Z,99941.58
2018-05-01T19:50:07.415Z,99942.09
2018-05-01T19:52:35.745Z,99941.96
2018-05-01T19:55:04.088Z,99946.63
2018-05-01T19:57:32.412Z,99947.17
2018-05-01T20:00:01.042Z,99942.92
2018-05-01T20:02:29.416Z,99951.72
2018-05-01T20:04:57.731Z,99953.38
2018-05-01T20:07:26.106Z,99958.03
2018-05-01T20:09:54.427Z,99956.20
2018-05-01T20:12:22.765Z,99956.42
2018-05-01T20:14:51.083Z,99963.39
2018-05-01T20:17:19.394Z,99974.62
2018-05-01T20:19:47.699Z,99975.20
